Kenner, LA

11:20 AM CDT on July 29, 2015 (GMT -0500)
Driftwood | | Change Station
CLOSE
Current Station
Personal Weather Station
Location: Kenner, LA
Elevation: 7 ft
Nearby Weather Stations

Elev 7 ft 30.03 °N, 90.23 °W | Updated 29 seconds ago

Mostly Cloudy
Mostly Cloudy
88.5 °F
Feels Like 101 °F
N
1.1
Wind Variable Wind from NE
Gusts 2.5 mph

Today
High -- | Low -- °F
--% Chance of Precip.
Yesterday
High -- | Low -- °F
Precip. -- in
6:18 AM 7:56 PM
Waxing Gibbous, 96% visible
Pressure 30.05 in
Visibility 9.0 miles
Clouds Few 3000 ft
Mostly Cloudy 25000 ft
Heat Index 101 °F
Dew Point 77 °F
Humidity 69%
Rainfall 0.00 in
Snow Depth Not available.
UV 8.0 out of 12
Pollen 2.60 out of 12
Air Quality Not available.
Flu Activity Not available.
METAR KMSY 291553Z 01008KT 9SM FEW030 BKN250 32/24 A3004 RMK AO2 SLP175 T03220239

More Conditions Fewer Conditions

Pressure 30.05 in
Visibility 9.0 miles
Clouds Few 3000 ft
Mostly Cloudy 25000 ft
Heat Index 101 °F
Dew Point 77 °F
Humidity 69%
Rainfall 0.00 in
Snow Depth Not available.
UV 8.0 out of 12
Pollen 2.60 out of 12
Air Quality Not available.
Flu Activity Not available.
METAR KMSY 291553Z 01008KT 9SM FEW030 BKN250 32/24 A3004 RMK AO2 SLP175 T03220239

More Conditions Fewer Conditions

10-Day Weather Forecast

×

Almanac

Astronomy

Jul. 29, 2015 Rise Set
Actual Time
Civil Twilight
Nautical Twilight
Astronomical Twilight
Moon
Length of Visible Light
Length of Day
Tomorrow will be .
, % of the Moon is Illuminated

Today's Extremes

State Highs State Lows

Community

WunderPhotos

Upload Photos

1,842,123 photos uploaded!

WunderBlogs® & News

Nearby

Air Quality

  Air Quality AQ Index Pollutant
Not available.

Snow Depth

Station Depth Elevation

Earthquake Activity

City Distance Mag. Time & Date
Minimum magnitude displayed is 2.5.

Coastal Water Temperatures

Place Temperature

Stations

Nearby Weather Stations

Station Location Temp. Windchill Dew Point Humidity Wind Precip. Elev Updated Type